Venividivici — ZCPL9 — position and weather

sailwx.info

Track history (hours):
 
Tides and Currents Weather Stations Pressure Air Temp Water Temp Dewpoint Dewpoint Depression Visibility Wind Speed Wind Dir Waves Ship Positions

Venividivici

Last reported at 2015-Jul-27 10:15 UTC. Time now 2015-Jul-28 01:25 UTC.
Position N 43°33' E 007°01'.

Length 40 m; draft 2 m.

MMSI: 319081000.

Date/timePositionNaut miles runAvg speedWind from/ knotsBaromVisibWave heightAir tempDewpointWater temp
2015-Jul-27 10:15N 43°33' E 007°01'0 0.0
2015-Jul-27 08:29N 43°33' E 007°01'0 0.0
2015-Jul-27 06:18N 43°33' E 007°01'0 0.0
2015-Jul-27 05:25N 43°33' E 007°01'0 0.0
2015-Jul-27 03:14N 43°33' E 007°01'0 0.0
2015-Jul-27 02:21N 43°33' E 007°01'0 0.0
2015-Jul-26 23:05N 43°33' E 007°01'0 0.0
2015-Jul-26 18:31N 43°33' E 007°01'2221.9
2015-Jul-26 17:31N 43°17' E 006°39'8 1.3
2015-Jul-26 11:19N 43°10' E 006°39'7 0.3
2015-Jul-25 12:09N 43°16' E 006°38'0 0.0
2015-Jul-25 10:31N 43°16' E 006°38'0 0.0
2015-Jul-25 09:32N 43°16' E 006°38'0 0.0
2015-Jul-25 08:21N 43°16' E 006°38'0 0.0
2015-Jul-25 07:16N 43°16' E 006°38'0 0.0
2015-Jul-25 06:10N 43°16' E 006°38'0 0.0
2015-Jul-25 05:11N 43°16' E 006°38'0 0.0
2015-Jul-24 17:19N 43°16' E 006°38'0 0.0
2015-Jul-24 16:14N 43°16' E 006°38'4 5.2
2015-Jul-24 15:34N 43°16' E 006°43'4 1.7
2015-Jul-24 13:30N 43°14' E 006°40'0 0.0
2015-Jul-24 12:13N 43°14' E 006°40'0 0.0
2015-Jul-24 11:31N 43°14' E 006°40'0 0.0
2015-Jul-24 10:23N 43°14' E 006°40'3 2.4
2015-Jul-24 09:14N 43°11' E 006°40'6 0.3
2015-Jul-23 16:20N 43°16' E 006°38'2 1.7
2015-Jul-23 15:24N 43°17' E 006°36'4 1.3
2015-Jul-23 12:10N 43°14' E 006°40'0 0.0
2015-Jul-23 10:23N 43°14' E 006°40'4 2.0
2015-Jul-23 08:31N 43°17' E 006°37'2 0.1
2015-Jul-22 16:10N 43°16' E 006°35'4 6.0
2015-Jul-22 15:28N 43°14' E 006°40'0 0.0
2015-Jul-22 14:32N 43°14' E 006°40'0 0.0
2015-Jul-22 13:24N 43°14' E 006°40'0 0.0
2015-Jul-22 12:30N 43°14' E 006°40'0 0.0
2015-Jul-22 11:28N 43°14' E 006°40'3 2.7
2015-Jul-22 10:25N 43°11' E 006°40'6 2.8
2015-Jul-22 08:22N 43°16' E 006°38'0 0.0
2015-Jul-21 19:06N 43°16' E 006°38'0 0.6
2015-Jul-21 18:28N 43°16' E 006°38'2021.6
2015-Jul-21 17:33N 43°29' E 006°58'4 1.2
2015-Jul-21 14:09N 43°33' E 007°01'1 0.5
2015-Jul-21 11:14N 43°32' E 007°02'1826.1
2015-Jul-21 10:33N 43°20' E 006°44'6 5.8
2015-Jul-21 09:31N 43°16' E 006°37'1 0.1
2015-Jul-20 17:33N 43°16' E 006°35'4 0.5
2015-Jul-20 10:32N 43°17' E 006°40'2 0.1
2015-Jul-19 17:13N 43°16' E 006°38'4 5.8
2015-Jul-19 16:33N 43°13' E 006°40'1 0.8
2015-Jul-19 15:22N 43°14' E 006°40'4 5.2
2015-Jul-19 14:33N 43°16' E 006°35'0 0.0
2015-Jul-19 08:28N 43°16' E 006°35'1 0.1
2015-Jul-18 15:34N 43°17' E 006°36'5 4.5
2015-Jul-18 14:32N 43°15' E 006°43'5 1.3
2015-Jul-18 10:25N 43°11' E 006°40'3 3.5
2015-Jul-18 09:31N 43°14' E 006°40'2 0.9
2015-Jul-18 07:33N 43°14' E 006°42'5 0.4
2015-Jul-17 17:21N 43°16' E 006°35'2 2.3
2015-Jul-17 16:31N 43°17' E 006°38'5 2.3
2015-Jul-17 14:33N 43°13' E 006°41'1 1.3
2015-Jul-17 13:29N 43°14' E 006°40'0 0.0
2015-Jul-17 11:12N 43°14' E 006°40'0 0.0
2015-Jul-17 10:24N 43°14' E 006°40'  
Track history (hours):
 
Tides and Currents Weather Stations Pressure Air Temp Water Temp Dewpoint Dewpoint Depression Visibility Wind Speed Wind Dir Waves Ship Positions

Venividivici

Last reported at 2015-Jul-27 10:15 UTC. Time now 2015-Jul-28 01:25 UTC.
Position N 43°33' E 007°01'.

Length 40 m; draft 2 m.

MMSI: 319081000.

Date/timePositionNaut miles runAvg speedWind from/ knotsBaromVisibWave heightAir tempDewpointWater temp
2015-Jul-27 10:15N 43°33' E 007°01'0 0.0
2015-Jul-27 08:29N 43°33' E 007°01'0 0.0
2015-Jul-27 06:18N 43°33' E 007°01'0 0.0
2015-Jul-27 05:25N 43°33' E 007°01'0 0.0
2015-Jul-27 03:14N 43°33' E 007°01'0 0.0
2015-Jul-27 02:21N 43°33' E 007°01'0 0.0
2015-Jul-26 23:05N 43°33' E 007°01'0 0.0
2015-Jul-26 18:31N 43°33' E 007°01'2221.9
2015-Jul-26 17:31N 43°17' E 006°39'8 1.3
2015-Jul-26 11:19N 43°10' E 006°39'7 0.3
2015-Jul-25 12:09N 43°16' E 006°38'0 0.0
2015-Jul-25 10:31N 43°16' E 006°38'0 0.0
2015-Jul-25 09:32N 43°16' E 006°38'0 0.0
2015-Jul-25 08:21N 43°16' E 006°38'0 0.0
2015-Jul-25 07:16N 43°16' E 006°38'0 0.0
2015-Jul-25 06:10N 43°16' E 006°38'0 0.0
2015-Jul-25 05:11N 43°16' E 006°38'0 0.0
2015-Jul-24 17:19N 43°16' E 006°38'0 0.0
2015-Jul-24 16:14N 43°16' E 006°38'4 5.2
2015-Jul-24 15:34N 43°16' E 006°43'4 1.7
2015-Jul-24 13:30N 43°14' E 006°40'0 0.0
2015-Jul-24 12:13N 43°14' E 006°40'0 0.0
2015-Jul-24 11:31N 43°14' E 006°40'0 0.0
2015-Jul-24 10:23N 43°14' E 006°40'3 2.4
2015-Jul-24 09:14N 43°11' E 006°40'6 0.3
2015-Jul-23 16:20N 43°16' E 006°38'2 1.7
2015-Jul-23 15:24N 43°17' E 006°36'4 1.3
2015-Jul-23 12:10N 43°14' E 006°40'0 0.0
2015-Jul-23 10:23N 43°14' E 006°40'4 2.0
2015-Jul-23 08:31N 43°17' E 006°37'2 0.1
2015-Jul-22 16:10N 43°16' E 006°35'4 6.0
2015-Jul-22 15:28N 43°14' E 006°40'0 0.0
2015-Jul-22 14:32N 43°14' E 006°40'0 0.0
2015-Jul-22 13:24N 43°14' E 006°40'0 0.0
2015-Jul-22 12:30N 43°14' E 006°40'0 0.0
2015-Jul-22 11:28N 43°14' E 006°40'3 2.7
2015-Jul-22 10:25N 43°11' E 006°40'6 2.8
2015-Jul-22 08:22N 43°16' E 006°38'0 0.0
2015-Jul-21 19:06N 43°16' E 006°38'0 0.6
2015-Jul-21 18:28N 43°16' E 006°38'2021.6
2015-Jul-21 17:33N 43°29' E 006°58'4 1.2
2015-Jul-21 14:09N 43°33' E 007°01'1 0.5
2015-Jul-21 11:14N 43°32' E 007°02'1826.1
2015-Jul-21 10:33N 43°20' E 006°44'6 5.8
2015-Jul-21 09:31N 43°16' E 006°37'1 0.1
2015-Jul-20 17:33N 43°16' E 006°35'4 0.5
2015-Jul-20 10:32N 43°17' E 006°40'2 0.1
2015-Jul-19 17:13N 43°16' E 006°38'4 5.8
2015-Jul-19 16:33N 43°13' E 006°40'1 0.8
2015-Jul-19 15:22N 43°14' E 006°40'4 5.2
2015-Jul-19 14:33N 43°16' E 006°35'0 0.0
2015-Jul-19 08:28N 43°16' E 006°35'1 0.1
2015-Jul-18 15:34N 43°17' E 006°36'5 4.5
2015-Jul-18 14:32N 43°15' E 006°43'5 1.3
2015-Jul-18 10:25N 43°11' E 006°40'3 3.5
2015-Jul-18 09:31N 43°14' E 006°40'2 0.9
2015-Jul-18 07:33N 43°14' E 006°42'5 0.4
2015-Jul-17 17:21N 43°16' E 006°35'2 2.3
2015-Jul-17 16:31N 43°17' E 006°38'5 2.3
2015-Jul-17 14:33N 43°13' E 006°41'1 1.3
2015-Jul-17 13:29N 43°14' E 006°40'0 0.0
2015-Jul-17 11:12N 43°14' E 006°40'0 0.0
2015-Jul-17 10:24N 43°14' E 006°40'  

Dump ship's entire track history